Aviation Digital Data Service (ADDS)

Output produced by METARs form (0754 UTC 10 December 2022)
found at http://www.aviationweather.gov/metar/data/
 
EDDK 100750Z AUTO VRB02KT 9000 OVC017 M02/M03 Q1010 TEMPO BKN010
EDDK 100720Z AUTO VRB01KT 9000 OVC017 M02/M03 Q1009 TEMPO BKN010
EDDK 100650Z AUTO VRB01KT 9000 OVC017 M02/M03 Q1009 TEMPO BKN008
EDDK 100620Z AUTO VRB01KT 8000 OVC018 M02/M03 Q1009 NOSIG
EDDK 100550Z AUTO 06004KT 8000 OVC019 M02/M04 Q1009 NOSIG
EDDK 100520Z AUTO 05003KT 8000 OVC020 M02/M03 Q1009 NOSIG
EDDK 100450Z AUTO 02003KT 7000 OVC021 M02/M03 Q1009 NOSIG
EDDK 100420Z AUTO 04003KT 9000 OVC021 M02/M04 Q1008 NOSIG
TAF EDDK 100500Z 1006/1112 VRB03KT 7000 BKN025 
     TEMPO 1006/1011 1500 BCFG 
     PROB30 
     TEMPO 1007/1013 BKN006 
     TEMPO 1100/1110 4000 BR BKN010
       
EDGS 100720Z 32004KT 0350 R31/0750D FZFG FEW002 M06/M06 Q1006
EDGS 100650Z 32004KT 0600 R13/1700U FZFG FEW002 M06/M06 Q1005
EDGS 100620Z AUTO 33003KT 0600 R13/0900U // NCD M05/M06 Q1005
EDGS 100550Z AUTO 33003KT 4200 // NCD M05/M05 Q1005
EDGS 100520Z AUTO 34003KT 5000 // NCD M06/M06 Q1005
EDGS 100450Z AUTO 35004KT 6000 // NCD M05/M05 Q1005
EDGS 100420Z AUTO 34003KT 3300 R13/1000U // NCD M05/M05 Q1005
TAF EDGS 100708Z 1008/1015 32005KT 5000 BR FEW002 
     TEMPO 1008/1011 0350 FZFG BKN001 
     TEMPO 1011/1015 BKN001
       
EDLW 100720Z 00000KT 9999 OVC013 M01/M03 Q1009
EDLW 100650Z 00000KT 9999 OVC013 M01/M03 Q1008
EDLW 100620Z 00000KT 9999 OVC013 M01/M03 Q1008
EDLW 100550Z 00000KT 9999 OVC013 M01/M03 Q1008
EDLW 100520Z 00000KT 9999 OVC013 M01/M03 Q1008
EDLW 100450Z 00000KT 9999 OVC014 M01/M03 Q1008
EDLW 100420Z 00000KT 9999 OVC014 M01/M03 Q1008
TAF EDLW 100500Z 1006/1106 20004KT 6000 BKN014 
     TEMPO 1006/1011 3000 BR BKN005 
     PROB30 
     TEMPO 1100/1106 3000 BR BKN004
       
EDDL 100750Z AUTO 24005KT 3400 BR OVC004 M02/M02 Q1010 TEMPO 0800 FZFG
EDDL 100720Z AUTO 25005KT 4600 BR OVC006 M01/M02 Q1009 TEMPO 0800 FZFG
EDDL 100650Z AUTO 24003KT 4600 BR OVC006 M01/M02 Q1009 TEMPO 0800 FZFG
EDDL 100620Z AUTO 25004KT 4700 BR OVC005 M01/M02 Q1009 TEMPO 0800 FZFG
EDDL 100550Z AUTO 24003KT 220V280 4800 BR OVC005 M01/M02 Q1009 TEMPO 0800 FZFG
EDDL 100520Z AUTO 21004KT 5000 BR BKN005 BKN025 M02/M03 Q1009 TEMPO 0800 FZFG
EDDL 100450Z AUTO 23003KT 5000 BR FEW004 BKN025 M02/M02 Q1009 TEMPO 0800 FZFG
EDDL 100420Z AUTO VRB01KT 3900 BR SCT002 BKN024 M01/M02 Q1009 TEMPO 2000
TAF AMD EDDL 100705Z 1007/1112 24004KT 5000 BR SCT025 
     TEMPO 1007/1011 0600 FZFG BKN001 
     PROB30 
     TEMPO 1011/1021 BKN008 
     BECMG 1021/1024 BKN010 
     TEMPO 1021/1110 BKN006
       
ETNN 100720Z 28002KT 0800 FZFG VV001 M02/M02 Q1009 RED
ETNN 100654Z 26003KT 2500 BR OVC001 M02/M02 Q1009 RED
ETNN 100620Z 26002KT 2800 BR SCT001 BKN008 BKN018 M02/M02 Q1008 YLO
ETNN 100520Z 27003KT 2500 BR SCT001 BKN008 M02/M02 Q1008 YLO
ETNN 100420Z 28006KT 2500 BR SCT000 BKN011 M02/M03 Q1008 YLO